Time;durP1;ratioP1;P1;durP2;ratioP2;P2;SDS_P1;SDS_P2;PMS_P1;PMS_P2;Temp;Humidity;BMP_temperature;BMP_pressure;BME280_temperature;BME280_humidity;BME280_pressure;Samples;Min_cycle;Max_cycle;Signal;HPM_P1;HPM_P2
2022/05/29 00:01:06;;;;;;;7.40;1.70;;;11.00;99.90;;;;;;4809009;29;20628;-80
2022/05/29 00:03:32;;;;;;;5.78;1.73;;;11.00;99.90;;;;;;4810182;29;20534;-82
2022/05/29 00:05:58;;;;;;;6.65;1.83;;;10.90;99.90;;;;;;4809018;29;20307;-81
2022/05/29 00:08:27;;;;;;;8.10;1.75;;;10.90;99.90;;;;;;4808898;29;20240;-81
2022/05/29 00:10:53;;;;;;;7.97;1.50;;;10.90;99.90;;;;;;4813949;29;20194;-81
2022/05/29 00:13:20;;;;;;;4.68;1.70;;;10.90;99.90;;;;;;4826722;29;20653;-81
2022/05/29 00:15:45;;;;;;;7.13;1.70;;;10.80;99.90;;;;;;4826591;29;20185;-81
2022/05/29 00:18:12;;;;;;;6.38;1.70;;;10.80;99.90;;;;;;4828033;29;20179;-81
2022/05/29 00:20:42;;;;;;;7.55;2.00;;;10.80;99.90;;;;;;4826740;29;20186;-80
2022/05/29 00:23:08;;;;;;;4.90;1.75;;;10.80;99.90;;;;;;4825202;29;20182;-80
2022/05/29 00:25:34;;;;;;;10.77;1.80;;;10.70;99.90;;;;;;4824234;29;20186;-81
2022/05/29 00:27:59;;;;;;;10.13;1.70;;;10.70;99.90;;;;;;4808278;29;20179;-81
2022/05/29 00:30:25;;;;;;;11.30;2.33;;;10.70;99.90;;;;;;4808462;29;20186;-81
2022/05/29 00:32:51;;;;;;;9.80;1.92;;;10.70;99.90;;;;;;4808462;29;20218;-81
2022/05/29 00:35:17;;;;;;;8.40;1.73;;;10.70;99.90;;;;;;4809553;29;20205;-81
2022/05/29 00:37:43;;;;;;;7.75;1.88;;;10.70;99.90;;;;;;4809599;29;20210;-81
2022/05/29 00:40:24;;;;;;;5.80;2.03;;;10.70;99.90;;;;;;4808439;29;20186;-81
2022/05/29 00:42:49;;;;;;;4.83;1.60;;;10.70;99.90;;;;;;4808129;29;20691;-81
2022/05/29 00:45:20;;;;;;;4.07;1.70;;;10.70;99.90;;;;;;4808924;29;20179;-81
2022/05/29 00:47:46;;;;;;;5.77;1.63;;;10.70;99.90;;;;;;4808238;29;20190;-81
2022/05/29 00:50:12;;;;;;;5.47;1.70;;;10.60;99.90;;;;;;4808059;29;20193;-80
2022/05/29 00:52:38;;;;;;;7.63;1.80;;;10.60;99.90;;;;;;4809038;29;20257;-80
2022/05/29 00:55:12;;;;;;;6.78;1.50;;;10.60;99.90;;;;;;4822774;29;20202;-81
2022/05/29 00:57:50;;;;;;;6.93;1.83;;;10.60;99.90;;;;;;4827178;29;20641;-81
2022/05/29 01:00:24;;;;;;;6.20;1.60;;;10.60;99.90;;;;;;4826163;29;20178;-80
2022/05/29 01:02:50;;;;;;;7.07;1.90;;;10.60;99.90;;;;;;4827250;29;20170;-80
2022/05/29 01:05:19;;;;;;;6.73;1.87;;;10.60;99.90;;;;;;4827084;29;20227;-81
2022/05/29 01:07:53;;;;;;;5.78;1.52;;;10.60;99.90;;;;;;4827256;29;20186;-81
2022/05/29 01:10:19;;;;;;;3.53;1.38;;;10.70;99.90;;;;;;4826025;29;20173;-81
2022/05/29 01:12:57;;;;;;;9.00;1.55;;;10.70;99.90;;;;;;4825553;29;20678;-81
2022/05/29 01:15:36;;;;;;;10.80;1.77;;;10.70;99.90;;;;;;4824173;29;20710;-81
2022/05/29 01:18:20;;;;;;;6.45;1.58;;;10.70;99.90;;;;;;4807673;29;20238;-81
2022/05/29 01:21:04;;;;;;;8.43;1.95;;;10.70;99.90;;;;;;4808978;29;20175;-80
2022/05/29 01:24:11;;;;;;;6.53;1.85;;;10.70;99.90;;;;;;4811053;29;20629;-80
2022/05/29 01:26:58;;;;;;;7.30;2.00;;;10.70;99.90;;;;;;4826609;29;20599;-81
2022/05/29 01:29:30;;;;;;;5.80;2.13;;;10.70;99.90;;;;;;4825603;29;20582;-81
2022/05/29 01:32:05;;;;;;;10.32;2.13;;;10.70;99.90;;;;;;4825563;29;20242;-81
2022/05/29 01:34:50;;;;;;;6.90;2.10;;;10.70;99.90;;;;;;4826667;29;20178;-81
2022/05/29 01:37:23;;;;;;;7.95;1.80;;;10.70;99.90;;;;;;4826922;29;20222;-81
2022/05/29 01:39:55;;;;;;;9.85;1.95;;;10.70;99.90;;;;;;4825510;29;20520;-81
2022/05/29 01:42:45;;;;;;;8.63;1.77;;;10.70;99.90;;;;;;4826357;29;20212;-80
2022/05/29 01:45:14;;;;;;;9.13;2.15;;;10.70;99.90;;;;;;4826591;29;20182;-81
2022/05/29 01:47:46;;;;;;;5.13;1.58;;;10.60;99.90;;;;;;4825387;29;20174;-81
2022/05/29 01:50:19;;;;;;;6.80;1.48;;;10.60;99.90;;;;;;4825288;29;20190;-81
2022/05/29 01:53:01;;;;;;;7.83;1.90;;;10.60;99.90;;;;;;4826279;29;20238;-80
2022/05/29 01:55:34;;;;;;;5.18;1.83;;;10.60;99.90;;;;;;4825214;29;20284;-81
2022/05/29 01:58:06;;;;;;;5.28;1.60;;;10.60;99.90;;;;;;4824079;29;20575;-80
2022/05/29 02:00:32;;;;;;;6.83;1.87;;;10.60;99.90;;;;;;4810537;29;20186;-81
2022/05/29 02:03:11;;;;;;;9.07;2.00;;;10.60;99.90;;;;;;4806796;29;20228;-81
2022/05/29 02:05:41;;;;;;;8.30;1.95;;;10.60;99.90;;;;;;4807944;29;20187;-81
2022/05/29 02:08:11;;;;;;;5.70;2.05;;;10.60;99.90;;;;;;4806647;29;20187;-80
2022/05/29 02:10:43;;;;;;;8.52;1.80;;;10.60;99.90;;;;;;4806904;29;20193;-80
2022/05/29 02:13:12;;;;;;;4.17;1.60;;;10.60;99.90;;;;;;4806486;29;20662;-81
2022/05/29 02:15:50;;;;;;;9.67;2.30;;;10.60;99.90;;;;;;4807897;29;20171;-81
2022/05/29 02:18:33;;;;;;;7.10;1.85;;;10.60;99.90;;;;;;4806812;29;20174;-81
2022/05/29 02:21:05;;;;;;;6.30;2.08;;;10.60;99.90;;;;;;4806579;29;20513;-81
2022/05/29 02:23:42;;;;;;;5.50;1.80;;;10.60;99.90;;;;;;4811000;29;20562;-81
2022/05/29 02:26:26;;;;;;;3.97;1.73;;;10.60;99.90;;;;;;4824646;29;20541;-80
2022/05/29 02:28:58;;;;;;;7.30;1.87;;;10.60;99.90;;;;;;4825256;29;20185;-84
2022/05/29 02:32:01;;;;;;;11.82;3.88;;;10.50;99.90;;;;;;4825413;29;20237;-83
2022/05/29 02:34:48;;;;;;;6.97;2.50;;;10.50;99.90;;;;;;4824818;29;20190;-82
2022/05/29 02:37:22;;;;;;;6.30;1.83;;;10.50;99.90;;;;;;4825342;29;20178;-83
2022/05/29 02:40:09;;;;;;;2.47;1.60;;;10.40;99.90;;;;;;4825082;29;20220;-82
2022/05/29 02:42:57;;;;;;;6.13;1.77;;;10.40;99.90;;;;;;4824252;29;20220;-83
2022/05/29 02:45:46;;;;;;;6.43;1.95;;;10.40;99.90;;;;;;4824822;29;20182;-82
2022/05/29 02:48:42;;;;;;;5.17;1.83;;;10.40;99.90;;;;;;4824925;29;20653;-82
2022/05/29 02:51:32;;;;;;;6.53;2.40;;;10.40;99.90;;;;;;4825789;29;20665;-82
2022/05/29 02:53:58;;;;;;;9.03;1.93;;;10.40;99.90;;;;;;4825950;29;20266;-82
2022/05/29 02:56:23;;;;;;;8.18;2.05;;;10.40;99.90;;;;;;4816280;29;20638;-82
2022/05/29 02:58:52;;;;;;;6.97;2.27;;;10.40;99.90;;;;;;4806426;29;20191;-82
2022/05/29 03:01:40;;;;;;;5.50;1.95;;;10.40;99.90;;;;;;4806289;29;20259;-82
2022/05/29 03:04:24;;;;;;;4.30;1.83;;;10.30;99.90;;;;;;4807495;29;20170;-82
2022/05/29 03:07:24;;;;;;;3.25;1.60;;;10.30;99.90;;;;;;4807643;29;20223;-81
2022/05/29 03:10:17;;;;;;;8.23;2.23;;;10.30;99.90;;;;;;4809718;29;20199;-82
2022/05/29 03:13:04;;;;;;;10.03;1.83;;;10.30;99.90;;;;;;4809658;29;20263;-82
2022/05/29 03:15:32;;;;;;;7.57;2.20;;;10.30;99.90;;;;;;4809883;29;20571;-81
2022/05/29 03:18:18;;;;;;;6.60;2.00;;;10.40;99.90;;;;;;4811014;29;20218;-81
2022/05/29 03:21:00;;;;;;;9.20;2.20;;;10.40;99.90;;;;;;4809937;29;20496;-81
2022/05/29 03:23:42;;;;;;;4.15;1.70;;;10.40;99.90;;;;;;4813616;29;20384;-82
2022/05/29 03:26:23;;;;;;;5.13;1.77;;;10.40;99.90;;;;;;4827685;29;20264;-81
2022/05/29 03:29:08;;;;;;;7.05;1.70;;;10.40;99.90;;;;;;4829042;29;20256;-82
2022/05/29 03:31:36;;;;;;;7.20;1.80;;;10.30;99.90;;;;;;4827880;29;20178;-82
2022/05/29 03:34:02;;;;;;;9.45;2.20;;;10.30;99.90;;;;;;4828825;29;20272;-81
2022/05/29 03:36:29;;;;;;;5.57;1.83;;;10.30;99.90;;;;;;4829417;29;20205;-82
2022/05/29 03:38:55;;;;;;;10.00;2.20;;;10.40;99.90;;;;;;4827671;29;20266;-81
2022/05/29 03:41:34;;;;;;;10.52;2.05;;;10.40;99.90;;;;;;4827178;29;20190;-81
2022/05/29 03:44:00;;;;;;;7.47;1.88;;;10.40;99.90;;;;;;4827469;29;20188;-81
2022/05/29 03:46:26;;;;;;;6.82;1.90;;;10.40;99.90;;;;;;4816706;29;20198;-81
2022/05/29 03:48:51;;;;;;;7.97;2.08;;;10.50;99.90;;;;;;4810585;29;20226;-81
2022/05/29 03:51:17;;;;;;;7.65;2.10;;;10.50;99.90;;;;;;4810222;29;20233;-80
2022/05/29 03:53:43;;;;;;;8.83;2.10;;;10.50;99.90;;;;;;4813509;29;20229;-81
2022/05/29 03:56:09;;;;;;;6.53;2.13;;;10.50;99.90;;;;;;4828385;29;20221;-80
2022/05/29 03:58:35;;;;;;;7.03;1.77;;;10.50;99.90;;;;;;4826772;29;20285;-80
2022/05/29 04:01:00;;;;;;;8.57;1.70;;;10.60;99.90;;;;;;4828382;29;20614;-81
2022/05/29 04:03:26;;;;;;;5.57;1.90;;;10.60;99.90;;;;;;4828325;29;20540;-81
2022/05/29 04:05:52;;;;;;;9.35;2.33;;;10.60;99.90;;;;;;4826868;29;20610;-81
2022/05/29 04:13:46;;;;;;;7.80;2.37;;;10.60;99.90;;;;;;4827772;29;20611;-80
2022/05/29 04:16:14;;;;;;;13.45;2.60;;;10.60;99.90;;;;;;4826684;29;20269;-80
2022/05/29 04:18:40;;;;;;;4.43;1.80;;;10.60;99.90;;;;;;4826886;29;20178;-80
2022/05/29 04:21:06;;;;;;;7.47;2.10;;;10.60;99.90;;;;;;4827019;29;20186;-81
2022/05/29 04:23:32;;;;;;;10.23;2.13;;;10.60;99.90;;;;;;4827771;29;20198;-80
2022/05/29 04:25:58;;;;;;;8.45;2.33;;;10.60;99.90;;;;;;4826638;29;20242;-80
2022/05/29 04:28:24;;;;;;;6.00;1.90;;;10.60;99.90;;;;;;4826395;29;20181;-80
2022/05/29 04:30:49;;;;;;;13.23;2.53;;;10.60;99.90;;;;;;4826547;29;20186;-80
2022/05/29 04:33:15;;;;;;;7.43;2.10;;;10.60;99.90;;;;;;4826377;29;20230;-80
2022/05/29 04:35:50;;;;;;;10.50;2.47;;;10.60;99.90;;;;;;4822565;29;20273;-80
2022/05/29 04:38:16;;;;;;;9.00;2.33;;;10.60;99.90;;;;;;4808614;29;20535;-81
2022/05/29 04:40:43;;;;;;;7.00;2.13;;;10.60;99.90;;;;;;4809614;29;20621;-80
2022/05/29 04:43:10;;;;;;;8.45;2.40;;;10.70;99.90;;;;;;4807953;29;20278;-80
2022/05/29 04:45:43;;;;;;;7.43;2.03;;;10.70;99.90;;;;;;4808036;29;20182;-80
2022/05/29 04:48:09;;;;;;;12.88;2.42;;;10.70;99.90;;;;;;4807949;29;20243;-81
2022/05/29 04:50:39;;;;;;;11.48;2.40;;;10.70;99.90;;;;;;4809397;29;20179;-80
2022/05/29 04:53:05;;;;;;;8.93;2.27;;;10.70;99.90;;;;;;4809179;29;20242;-79
2022/05/29 04:55:32;;;;;;;11.68;2.22;;;10.80;99.90;;;;;;4790078;29;20270;-81
2022/05/29 04:57:58;;;;;;;6.40;2.20;;;10.80;99.90;;;;;;4790841;29;20179;-80
2022/05/29 05:00:23;;;;;;;8.63;2.00;;;10.70;99.90;;;;;;4789901;29;20631;-80
2022/05/29 05:02:49;;;;;;;9.43;1.83;;;10.70;99.90;;;;;;4789952;29;20179;-81
2022/05/29 05:05:15;;;;;;;9.93;2.58;;;10.80;99.90;;;;;;4791029;29;20263;-80
2022/05/29 05:07:41;;;;;;;8.48;2.33;;;10.80;99.90;;;;;;4791112;29;20194;-80
2022/05/29 05:10:11;;;;;;;5.60;1.90;;;10.80;99.90;;;;;;4789896;29;20183;-80
2022/05/29 05:12:40;;;;;;;8.20;2.53;;;10.80;99.90;;;;;;4790897;29;20271;-79
2022/05/29 05:15:08;;;;;;;7.57;2.05;;;10.80;99.90;;;;;;4807626;29;20195;-80
2022/05/29 05:17:33;;;;;;;10.88;2.38;;;10.90;99.90;;;;;;4807837;29;20183;-79
2022/05/29 05:19:59;;;;;;;6.43;2.00;;;10.90;99.90;;;;;;4807710;29;20694;-81
2022/05/29 05:22:25;;;;;;;7.43;2.13;;;10.90;99.90;;;;;;4807674;29;20186;-80
2022/05/29 05:24:50;;;;;;;7.70;2.10;;;10.90;99.90;;;;;;4810303;29;20524;-79
2022/05/29 05:27:16;;;;;;;4.13;1.83;;;10.90;99.90;;;;;;4807977;29;20216;-80
2022/05/29 05:29:43;;;;;;;8.15;2.72;;;10.90;99.90;;;;;;4807430;29;20194;-82
2022/05/29 05:32:08;;;;;;;3.85;1.83;;;10.90;99.90;;;;;;4806895;29;20225;-83
2022/05/29 05:34:34;;;;;;;8.73;2.78;;;11.00;99.90;;;;;;4805822;29;20187;-83
2022/05/29 05:37:00;;;;;;;5.88;2.20;;;11.10;99.90;;;;;;4806127;29;20521;-83
2022/05/29 05:39:25;;;;;;;7.45;2.28;;;11.10;99.90;;;;;;4806463;29;20642;-83
2022/05/29 05:41:51;;;;;;;6.88;2.45;;;11.20;99.90;;;;;;4807368;29;20523;-82
2022/05/29 05:44:17;;;;;;;9.65;2.45;;;11.30;99.90;;;;;;4807113;29;20190;-82
2022/05/29 05:46:45;;;;;;;6.85;2.15;;;11.40;99.90;;;;;;4808702;29;20627;-84
2022/05/29 05:49:11;;;;;;;10.18;2.65;;;11.40;99.90;;;;;;4808824;29;20236;-83
2022/05/29 05:51:37;;;;;;;10.30;2.88;;;11.40;99.90;;;;;;4807484;29;20319;-85
2022/05/29 05:54:03;;;;;;;11.93;2.92;;;11.40;99.90;;;;;;4815836;29;20381;-85
2022/05/29 05:56:28;;;;;;;4.97;2.20;;;11.50;99.90;;;;;;4825804;29;20190;-84
2022/05/29 05:58:54;;;;;;;9.00;2.90;;;11.50;99.90;;;;;;4825657;29;20185;-86
2022/05/29 06:01:20;;;;;;;7.35;2.85;;;11.40;99.90;;;;;;4825921;29;20188;-85
2022/05/29 06:03:46;;;;;;;4.88;2.15;;;11.40;99.90;;;;;;4825728;29;20237;-85
2022/05/29 06:06:11;;;;;;;9.88;2.88;;;11.40;99.90;;;;;;4825601;29;20189;-84
2022/05/29 06:08:37;;;;;;;6.00;2.28;;;11.30;99.90;;;;;;4825650;29;20182;-84
2022/05/29 06:11:03;;;;;;;7.78;2.83;;;11.30;99.90;;;;;;4826532;29;20206;-84
2022/05/29 06:13:29;;;;;;;10.55;2.70;;;11.40;99.90;;;;;;4811312;29;20558;-84
2022/05/29 06:16:02;;;;;;;7.20;2.40;;;11.40;99.90;;;;;;4807164;29;20198;-84
2022/05/29 06:18:29;;;;;;;17.13;3.13;;;11.40;99.90;;;;;;4808362;29;20259;-83
2022/05/29 06:21:00;;;;;;;10.35;3.00;;;11.30;99.90;;;;;;4808478;29;20257;-83
2022/05/29 06:23:27;;;;;;;8.63;2.63;;;11.30;99.90;;;;;;4809485;29;20197;-84
2022/05/29 06:25:53;;;;;;;9.10;2.60;;;11.30;99.90;;;;;;4826404;29;20190;-84
2022/05/29 06:28:19;;;;;;;10.75;3.17;;;11.30;99.90;;;;;;4825188;29;20186;-83
2022/05/29 06:30:44;;;;;;;10.65;2.80;;;11.30;99.90;;;;;;4826418;29;20185;-84
2022/05/29 06:33:11;;;;;;;6.38;2.72;;;11.30;99.90;;;;;;4825191;29;20209;-83
2022/05/29 06:35:37;;;;;;;7.90;3.10;;;11.20;99.90;;;;;;4826205;29;20184;-83
2022/05/29 06:38:03;;;;;;;13.82;2.95;;;11.20;99.90;;;;;;4826162;29;20256;-83
2022/05/29 06:40:29;;;;;;;8.60;2.80;;;11.20;99.90;;;;;;4826127;29;20197;-83
2022/05/29 06:42:55;;;;;;;7.15;2.70;;;11.20;99.90;;;;;;4825424;29;20186;-83
2022/05/29 06:45:21;;;;;;;13.20;3.42;;;11.30;99.90;;;;;;4823741;29;20243;-82
2022/05/29 06:47:48;;;;;;;8.40;3.28;;;11.20;99.90;;;;;;4805874;29;20182;-82
2022/05/29 06:50:14;;;;;;;6.53;2.65;;;11.30;99.90;;;;;;4807092;29;20189;-81
2022/05/29 06:52:40;;;;;;;13.60;2.60;;;11.30;99.90;;;;;;4806568;29;20237;-82
2022/05/29 06:55:06;;;;;;;9.27;2.78;;;11.40;99.90;;;;;;4808239;29;20516;-82
2022/05/29 06:57:41;;;;;;;10.50;2.90;;;11.50;99.90;;;;;;4806218;29;20247;-84
2022/05/29 07:08:31;;;;;;;13.93;3.25;;;11.50;99.90;;;;;;4807741;29;20174;-83
2022/05/29 07:11:02;;;;;;;7.28;3.00;;;11.50;99.90;;;;;;4806310;29;20699;-82
2022/05/29 07:13:31;;;;;;;9.77;2.72;;;11.50;99.90;;;;;;4806795;29;20654;-82
2022/05/29 07:15:57;;;;;;;10.00;3.20;;;11.50;99.90;;;;;;4805836;29;20281;-83
2022/05/29 07:18:23;;;;;;;12.68;2.60;;;11.60;99.90;;;;;;4806167;29;20273;-82
2022/05/29 07:20:49;;;;;;;7.63;2.97;;;11.70;99.90;;;;;;4807593;29;20187;-82
2022/05/29 07:23:15;;;;;;;10.50;2.65;;;11.90;99.90;;;;;;4807049;29;20187;-82
2022/05/29 07:25:40;;;;;;;13.32;2.97;;;12.10;99.90;;;;;;4825199;29;20590;-83
2022/05/29 07:28:08;;;;;;;9.32;2.63;;;12.10;99.90;;;;;;4825173;29;20182;-83
2022/05/29 07:30:34;;;;;;;8.00;2.45;;;12.20;99.90;;;;;;4824533;29;20197;-82
2022/05/29 07:33:00;;;;;;;9.02;3.35;;;12.20;99.90;;;;;;4824150;29;20656;-83
2022/05/29 07:35:27;;;;;;;11.93;3.17;;;12.10;99.90;;;;;;4812748;29;20183;-83
2022/05/29 07:37:53;;;;;;;9.13;2.83;;;12.10;99.90;;;;;;4807015;29;20191;-83
2022/05/29 07:40:18;;;;;;;8.90;2.63;;;12.10;99.90;;;;;;4805864;29;20183;-83
2022/05/29 07:45:28;;;;;;;10.55;2.80;;;12.20;99.90;;;;;;4807255;29;20259;-82
2022/05/29 07:47:55;;;;;;;12.75;3.55;;;12.30;99.90;;;;;;4806922;29;20616;-82
2022/05/29 07:50:22;;;;;;;6.68;2.25;;;12.40;99.90;;;;;;4805894;29;20241;-82
2022/05/29 07:52:52;;;;;;;12.55;2.88;;;12.50;99.90;;;;;;4806724;29;20245;-81
2022/05/29 07:55:18;;;;;;;7.13;2.65;;;12.60;99.90;;;;;;4823789;29;20193;-82
2022/05/29 07:57:45;;;;;;;11.00;2.50;;;12.60;99.90;;;;;;4827936;29;20194;-83
2022/05/29 08:00:13;;;;;;;8.25;2.50;;;12.70;99.90;;;;;;4827053;29;20184;-82
2022/05/29 08:02:39;;;;;;;10.40;2.92;;;12.70;99.90;;;;;;4828462;29;20186;-82
2022/05/29 08:05:06;;;;;;;10.40;2.63;;;12.90;99.90;;;;;;4828286;29;20182;-82
2022/05/29 08:07:32;;;;;;;8.98;2.58;;;13.00;99.90;;;;;;4826686;29;20266;-82
2022/05/29 08:09:58;;;;;;;7.80;2.78;;;13.00;99.90;;;;;;4826849;29;20681;-83
2022/05/29 08:12:24;;;;;;;8.20;2.97;;;13.10;99.90;;;;;;4826865;29;20556;-83
2022/05/29 08:14:49;;;;;;;15.88;2.70;;;13.20;99.90;;;;;;4827051;29;20614;-83
2022/05/29 08:17:16;;;;;;;10.63;3.63;;;13.00;99.90;;;;;;4826674;29;20182;-83
2022/05/29 08:19:41;;;;;;;13.73;3.30;;;12.90;99.90;;;;;;4826912;29;20217;-83
2022/05/29 08:22:07;;;;;;;7.25;2.70;;;12.80;99.90;;;;;;4826824;29;20231;-82
2022/05/29 08:33:15;;;;;;;9.98;2.33;;;12.40;99.90;;;;;;4827990;29;20629;-82
2022/05/29 08:35:48;;;;;;;11.30;2.28;;;12.50;99.90;;;;;;4826210;29;20182;-82
2022/05/29 08:38:16;;;;;;;9.73;2.60;;;12.50;99.90;;;;;;4826116;29;20649;-81
2022/05/29 08:40:54;;;;;;;9.45;2.67;;;12.60;99.90;;;;;;4826523;29;20201;-81
2022/05/29 08:43:36;;;;;;;10.40;2.63;;;12.80;99.90;;;;;;4827240;29;20174;-81
2022/05/29 08:46:31;;;;;;;9.85;2.80;;;12.90;99.90;;;;;;4826391;29;20178;-82
2022/05/29 08:48:57;;;;;;;9.52;2.88;;;12.90;99.90;;;;;;4826302;29;20178;-82
2022/05/29 08:51:54;;;;;;;9.55;2.67;;;12.80;99.90;;;;;;4825868;29;20234;-81
2022/05/29 08:54:29;;;;;;;7.40;2.17;;;12.70;99.90;;;;;;4827193;29;20194;-81
2022/05/29 08:57:09;;;;;;;6.70;2.42;;;12.60;99.90;;;;;;4826318;29;20198;-83
2022/05/29 08:59:47;;;;;;;12.10;2.83;;;12.50;99.90;;;;;;4827197;29;20177;-82
2022/05/29 09:02:13;;;;;;;6.50;2.40;;;12.50;99.90;;;;;;4824843;29;20205;-83
2022/05/29 09:04:50;;;;;;;9.43;2.58;;;12.40;99.90;;;;;;4807864;29;20186;-83
2022/05/29 09:07:18;;;;;;;5.03;2.03;;;12.40;99.90;;;;;;4807605;29;20182;-83
2022/05/29 09:09:52;;;;;;;9.38;2.78;;;12.50;99.90;;;;;;4808275;29;20202;-83
2022/05/29 09:12:52;;;;;;;7.40;2.60;;;12.50;99.90;;;;;;4809084;29;20207;-82
2022/05/29 09:15:38;;;;;;;6.95;2.53;;;12.70;99.90;;;;;;4808820;29;20190;-83
2022/05/29 09:18:15;;;;;;;11.85;2.78;;;12.80;99.90;;;;;;4809068;29;20178;-82
2022/05/29 09:21:02;;;;;;;10.18;2.95;;;12.90;99.90;;;;;;4809124;29;20181;-81
2022/05/29 09:23:34;;;;;;;8.25;2.60;;;13.00;99.90;;;;;;4810407;29;20198;-82
2022/05/29 09:26:04;;;;;;;7.47;2.90;;;13.30;99.90;;;;;;4825760;29;20194;-83
2022/05/29 09:28:41;;;;;;;8.48;2.60;;;13.30;99.90;;;;;;4822190;29;20175;-82
2022/05/29 09:31:16;;;;;;;10.27;3.08;;;13.50;99.90;;;;;;4807492;29;20175;-81
2022/05/29 09:33:42;;;;;;;4.75;2.10;;;13.70;99.90;;;;;;4808074;29;20210;-82
2022/05/29 09:36:51;;;;;;;6.85;2.30;;;13.80;99.90;;;;;;4808085;29;20186;-81
2022/05/29 09:39:17;;;;;;;8.15;2.30;;;13.90;99.90;;;;;;4803989;29;20682;-81
2022/05/29 09:41:48;;;;;;;9.25;2.30;;;13.90;99.90;;;;;;4807261;29;20195;-81
2022/05/29 09:44:20;;;;;;;4.03;1.90;;;14.00;99.90;;;;;;4808108;29;20214;-81
2022/05/29 09:46:51;;;;;;;5.28;1.90;;;14.00;99.90;;;;;;4807315;29;20261;-82
2022/05/29 09:49:42;;;;;;;8.93;2.35;;;13.90;99.90;;;;;;4808502;29;20525;-82
2022/05/29 09:52:10;;;;;;;9.90;2.58;;;13.90;99.90;;;;;;4808063;29;20226;-82
2022/05/29 09:54:53;;;;;;;7.28;2.47;;;13.70;99.90;;;;;;4819487;29;20212;-83
2022/05/29 09:57:25;;;;;;;8.95;2.05;;;13.50;99.90;;;;;;4825439;29;20193;-81
2022/05/29 10:00:08;;;;;;;6.43;1.92;;;13.40;99.90;;;;;;4825019;29;20197;-81
2022/05/29 10:02:45;;;;;;;6.45;2.10;;;13.40;99.90;;;;;;4825164;29;20193;-81
2022/05/29 10:05:29;;;;;;;5.68;2.00;;;13.30;99.90;;;;;;4825060;29;20208;-82
2022/05/29 10:07:58;;;;;;;6.80;2.00;;;13.40;99.90;;;;;;4805885;29;20638;-81
2022/05/29 10:10:24;;;;;;;9.23;1.90;;;13.50;99.90;;;;;;4807494;29;20212;-81
2022/05/29 10:12:50;;;;;;;9.82;2.50;;;13.60;99.90;;;;;;4806963;29;20287;-79
2022/05/29 10:15:25;;;;;;;6.85;1.80;;;13.60;99.90;;;;;;4803459;29;20185;-79
2022/05/29 10:18:21;;;;;;;5.53;2.13;;;13.70;99.90;;;;;;4805716;29;20661;-81
2022/05/29 10:20:47;;;;;;;6.05;2.08;;;13.70;99.90;;;;;;4799325;29;20221;-80
2022/05/29 10:23:31;;;;;;;4.65;1.90;;;13.60;99.90;;;;;;4805843;29;20635;-79
2022/05/29 10:26:04;;;;;;;4.80;2.10;;;13.60;99.90;;;;;;4803800;29;20620;-81
2022/05/29 10:28:35;;;;;;;6.18;2.03;;;13.60;99.90;;;;;;4805466;29;20627;-79
2022/05/29 10:31:05;;;;;;;6.80;1.60;;;13.60;99.90;;;;;;4804789;29;20182;-80
2022/05/29 10:33:33;;;;;;;5.45;1.65;;;13.60;99.90;;;;;;4805570;29;20214;-79
2022/05/29 10:36:22;;;;;;;4.03;1.77;;;13.60;99.90;;;;;;4806240;29;20642;-80
2022/05/29 10:39:13;;;;;;;8.02;2.03;;;13.80;99.90;;;;;;4820141;29;20238;-80
2022/05/29 10:41:41;;;;;;;4.47;2.00;;;14.00;99.90;;;;;;4824459;29;20192;-80
2022/05/29 10:44:32;;;;;;;5.32;1.80;;;14.10;99.90;;;;;;4824186;29;20218;-81
2022/05/29 10:47:16;;;;;;;3.17;1.40;;;14.20;99.90;;;;;;4789217;29;20278;-79
2022/05/29 10:50:11;;;;;;;3.92;1.40;;;14.10;99.90;;;;;;4788043;30;20194;-80
2022/05/29 10:52:54;;;;;;;5.97;2.05;;;13.90;99.90;;;;;;4798061;29;20246;-80
2022/05/29 10:56:14;;;;;;;6.78;1.20;;;13.80;99.90;;;;;;4806503;29;20190;-78
2022/05/29 10:59:08;;;;;;;3.92;1.30;;;13.60;99.90;;;;;;4788403;29;20211;-80
2022/05/29 11:04:45;;;;;;;5.80;1.75;;;13.50;99.90;;;;;;4806648;29;20193;-80
2022/05/29 11:07:38;;;;;;;2.45;1.50;;;13.50;99.90;;;;;;4805119;29;20626;-79
2022/05/29 11:10:25;;;;;;;3.75;1.35;;;13.60;99.90;;;;;;4805238;29;20231;-80
2022/05/29 11:13:01;;;;;;;5.22;1.58;;;13.70;99.90;;;;;;4803367;29;20217;-81
2022/05/29 11:15:36;;;;;;;4.18;1.55;;;13.90;99.90;;;;;;4804321;29;20182;-81
2022/05/29 11:18:23;;;;;;;3.55;1.58;;;14.10;99.90;;;;;;4806665;29;20261;-80
2022/05/29 11:20:55;;;;;;;3.45;1.38;;;14.40;99.90;;;;;;4804721;29;20175;-81
2022/05/29 11:23:47;;;;;;;3.40;1.35;;;14.60;99.90;;;;;;4805307;29;20232;-80
2022/05/29 11:26:35;;;;;;;2.47;1.20;;;14.60;99.90;;;;;;4803688;29;20190;-82
2022/05/29 11:29:14;;;;;;;4.75;1.20;;;14.60;99.90;;;;;;4786138;29;20217;-80
2022/05/29 11:31:58;;;;;;;1.77;0.90;;;14.50;99.90;;;;;;4810282;29;20177;-80
2022/05/29 11:34:33;;;;;;;2.20;1.10;;;14.50;99.90;;;;;;4809322;29;20198;-81
2022/05/29 11:37:05;;;;;;;2.58;0.98;;;14.60;99.90;;;;;;4810500;29;20275;-80
2022/05/29 11:39:37;;;;;;;0.95;0.60;;;14.80;99.90;;;;;;4792734;30;20178;-81
2022/05/29 11:42:34;;;;;;;1.63;0.70;;;14.70;99.90;;;;;;4790095;30;20179;-81
2022/05/29 11:45:18;;;;;;;1.15;0.50;;;14.40;99.90;;;;;;4792191;29;20171;-81
2022/05/29 11:51:11;;;;;;;1.55;0.50;;;13.60;99.90;;;;;;4792454;30;20175;-81
2022/05/29 11:53:40;;;;;;;0.82;0.60;;;13.20;99.90;;;;;;4791048;30;20230;-81
2022/05/29 11:56:15;;;;;;;1.67;0.70;;;13.00;99.90;;;;;;4791181;30;20266;-81
2022/05/29 11:58:53;;;;;;;2.35;0.88;;;12.90;99.90;;;;;;4790910;30;20615;-81
2022/05/29 12:01:26;;;;;;;0.93;0.70;;;12.90;99.90;;;;;;4791107;30;20285;-82
2022/05/29 12:04:17;;;;;;;0.73;0.50;;;12.90;99.90;;;;;;4791070;30;20190;-82
2022/05/29 12:07:22;;;;;;;1.85;0.60;;;13.00;99.90;;;;;;4792249;29;20176;-82
2022/05/29 12:10:06;;;;;;;2.85;0.65;;;13.10;99.90;;;;;;4790600;29;20202;-83
2022/05/29 12:12:59;;;;;;;2.60;0.65;;;13.20;99.90;;;;;;4791070;29;20310;-83
2022/05/29 12:15:25;;;;;;;2.95;0.80;;;13.40;99.90;;;;;;4803133;29;20278;-82
2022/05/29 12:17:57;;;;;;;1.40;0.80;;;13.60;99.90;;;;;;4792083;29;20183;-83
2022/05/29 12:20:41;;;;;;;1.10;0.80;;;13.70;99.90;;;;;;4792111;29;20179;-82
2022/05/29 12:23:31;;;;;;;1.42;0.82;;;13.80;99.90;;;;;;4795366;29;20619;-81
2022/05/29 12:26:06;;;;;;;1.52;0.90;;;14.10;99.90;;;;;;4808350;29;20197;-82
2022/05/29 12:28:52;;;;;;;1.95;0.68;;;14.30;99.90;;;;;;4809450;29;20162;-82
2022/05/29 12:31:29;;;;;;;2.55;0.95;;;14.50;99.90;;;;;;4808725;29;20182;-82
2022/05/29 12:33:55;;;;;;;1.92;0.90;;;14.90;99.90;;;;;;4809617;29;20206;-82
2022/05/29 12:36:37;;;;;;;1.63;1.00;;;15.30;99.90;;;;;;4809612;29;20231;-82
2022/05/29 12:39:17;;;;;;;2.05;1.00;;;15.50;99.90;;;;;;4825017;29;20198;-81
2022/05/29 12:42:06;;;;;;;3.75;0.90;;;15.90;99.90;;;;;;4825572;29;20678;-81
2022/05/29 12:44:47;;;;;;;3.30;0.98;;;16.00;99.90;;;;;;4808047;29;20257;-83
2022/05/29 12:47:28;;;;;;;3.63;1.13;;;16.00;99.90;;;;;;4827679;29;20230;-82
2022/05/29 12:50:27;;;;;;;4.50;1.00;;;16.20;99.90;;;;;;4827569;29;20171;-82
2022/05/29 12:53:02;;;;;;;3.78;0.90;;;16.30;99.90;;;;;;4826085;29;20297;-82
2022/05/29 12:55:49;;;;;;;1.67;0.80;;;16.10;99.90;;;;;;4827066;29;20544;-82
2022/05/29 12:58:38;;;;;;;1.85;0.63;;;15.90;99.90;;;;;;4826081;29;20202;-82
2022/05/29 13:01:29;;;;;;;1.73;0.85;;;15.60;99.90;;;;;;4818009;29;20197;-81
2022/05/29 13:04:30;;;;;;;2.80;0.80;;;15.40;99.90;;;;;;4821768;29;20685;-83
2022/05/29 13:07:27;;;;;;;1.40;0.73;;;15.30;99.90;;;;;;4826170;29;20170;-82
2022/05/29 13:10:13;;;;;;;1.50;0.70;;;15.50;99.90;;;;;;4808818;29;20623;-82
2022/05/29 13:12:45;;;;;;;2.10;0.75;;;15.70;99.90;;;;;;4791929;29;20716;-82
2022/05/29 13:15:23;;;;;;;3.13;0.70;;;15.90;99.90;;;;;;4811087;29;20195;-81
2022/05/29 13:18:27;;;;;;;0.95;0.60;;;15.80;99.90;;;;;;4809134;29;20568;-81
2022/05/29 13:21:17;;;;;;;2.60;1.00;;;15.60;99.90;;;;;;4805118;29;20198;-82
2022/05/29 13:23:54;;;;;;;0.85;0.63;;;15.50;99.90;;;;;;4811168;29;20269;-82
2022/05/29 13:26:29;;;;;;;2.75;0.93;;;15.30;99.90;;;;;;4822278;29;20243;-80
2022/05/29 13:29:03;;;;;;;2.88;0.73;;;15.00;99.90;;;;;;4797598;29;20186;-82
2022/05/29 13:31:32;;;;;;;1.90;1.00;;;14.70;99.90;;;;;;4805130;29;20190;-83
2022/05/29 13:34:28;;;;;;;1.58;0.70;;;14.50;99.90;;;;;;4808443;29;20218;-83
2022/05/29 13:37:02;;;;;;;2.45;0.82;;;14.40;99.90;;;;;;4818147;29;20179;-82
2022/05/29 13:39:28;;;;;;;0.60;0.50;;;14.20;99.90;;;;;;4814059;29;20207;-82
2022/05/29 13:42:11;;;;;;;1.48;0.60;;;14.00;99.90;;;;;;4810774;29;20263;-82
2022/05/29 13:44:42;;;;;;;1.10;0.80;;;13.90;99.90;;;;;;4812095;29;20186;-83
2022/05/29 13:47:23;;;;;;;2.95;1.00;;;13.90;99.90;;;;;;4817589;29;20178;-84
2022/05/29 13:50:02;;;;;;;2.22;1.15;;;13.90;99.90;;;;;;4821526;29;20253;-83
2022/05/29 13:52:34;;;;;;;2.35;0.70;;;13.90;99.90;;;;;;4792681;29;20234;-83